createdAt,value
2019-03-23T00:01:51.410Z,102420.30
2019-03-23T00:04:21.205Z,102419.66
2019-03-23T00:06:50.922Z,102421.97
2019-03-23T00:09:20.714Z,102422.99
2019-03-23T00:11:50.493Z,102430.72
2019-03-23T00:14:20.184Z,102438.02
2019-03-23T00:16:49.943Z,102449.27
2019-03-23T00:19:19.635Z,102436.64
2019-03-23T00:21:49.366Z,102438.02
2019-03-23T00:24:19.046Z,102438.97
2019-03-23T00:26:49.056Z,102441.16
2019-03-23T00:29:18.794Z,102441.06
2019-03-23T00:31:48.486Z,102447.50
2019-03-23T00:34:47.850Z,102459.09
2019-03-23T00:37:21.128Z,102455.02
2019-03-23T00:39:50.918Z,102452.03
2019-03-23T00:42:20.681Z,102453.16
2019-03-23T00:44:50.402Z,102451.84
2019-03-23T00:47:20.107Z,102454.89
2019-03-23T00:49:49.847Z,102451.16
2019-03-23T00:52:19.561Z,102454.29
2019-03-23T00:54:49.257Z,102449.06
2019-03-23T00:57:19.004Z,102449.69
2019-03-23T00:59:49.017Z,102451.72
2019-03-23T01:02:18.797Z,102458.13
2019-03-23T01:04:48.533Z,102461.89
2019-03-23T01:07:18.250Z,102463.54
2019-03-23T01:09:48.056Z,102453.15
2019-03-23T01:12:17.843Z,102456.63
2019-03-23T01:14:47.531Z,102452.45
2019-03-23T01:17:17.276Z,102453.24
2019-03-23T01:19:47.028Z,102451.84
2019-03-23T01:22:16.757Z,102441.77
2019-03-23T01:24:46.560Z,102438.98
2019-03-23T01:27:16.301Z,102437.65
2019-03-23T01:29:46.042Z,102433.81
2019-03-23T01:32:15.855Z,102432.80
2019-03-23T01:34:45.588Z,102430.30
2019-03-23T01:37:15.325Z,102439.38
2019-03-23T01:39:45.112Z,102434.25
2019-03-23T01:42:14.838Z,102433.64
2019-03-23T01:44:44.540Z,102432.37
2019-03-23T01:47:14.279Z,102434.08
2019-03-23T01:49:43.976Z,102423.03
2019-03-23T01:52:13.715Z,102424.75
2019-03-23T01:54:43.396Z,102422.59
2019-03-23T01:57:13.168Z,102418.55
2019-03-23T01:59:42.874Z,102419.20
2019-03-23T02:02:12.722Z,102417.97
2019-03-23T02:04:42.463Z,102411.78
2019-03-23T02:07:14.053Z,102409.78
2019-03-23T02:09:43.613Z,102404.69
2019-03-23T02:12:13.330Z,102407.02
2019-03-23T02:14:43.071Z,102411.48
2019-03-23T02:17:12.786Z,102418.50
2019-03-23T02:19:42.525Z,102423.97
2019-03-23T02:22:12.314Z,102418.39
2019-03-23T02:24:42.004Z,102410.63
2019-03-23T02:27:11.826Z,102406.16
2019-03-23T02:29:41.511Z,102416.91
2019-03-23T02:32:11.245Z,102423.56
2019-03-23T02:34:40.951Z,102426.64
2019-03-23T02:37:10.720Z,102432.08
2019-03-23T02:39:40.440Z,102427.99
2019-03-23T02:42:10.155Z,102429.81
2019-03-23T02:44:39.927Z,102437.17
2019-03-23T02:47:09.917Z,102447.47
2019-03-23T02:49:39.609Z,102438.73
2019-03-23T02:52:09.394Z,102443.09
2019-03-23T02:54:39.121Z,102444.05
2019-03-23T02:57:08.941Z,102441.82
2019-03-23T02:59:38.802Z,102442.23
2019-03-23T03:02:08.696Z,102444.91
2019-03-23T03:04:38.477Z,102446.87
2019-03-23T03:07:08.214Z,102443.72
2019-03-23T03:09:37.915Z,102444.16
2019-03-23T03:12:07.654Z,102437.17
2019-03-23T03:14:37.393Z,102435.35
2019-03-23T03:17:07.121Z,102439.06
2019-03-23T03:19:36.850Z,102439.59
2019-03-23T03:22:06.542Z,102442.04
2019-03-23T03:24:36.307Z,102435.71
2019-03-23T03:27:06.005Z,102438.06
2019-03-23T03:29:35.717Z,102433.15
2019-03-23T03:32:05.480Z,102430.88
2019-03-23T03:34:36.524Z,102441.21
2019-03-23T03:37:06.196Z,102449.02
2019-03-23T03:39:36.009Z,102451.55
2019-03-23T03:42:05.924Z,102454.64
2019-03-23T03:44:35.630Z,102453.13
2019-03-23T03:47:05.358Z,102456.80
2019-03-23T03:49:35.188Z,102449.39
2019-03-23T03:52:05.100Z,102442.39
2019-03-23T03:54:34.783Z,102449.76
2019-03-23T03:57:04.452Z,102451.55
2019-03-23T03:59:34.215Z,102444.18
2019-03-23T04:02:03.971Z,102450.92
2019-03-23T04:04:33.730Z,102448.25
2019-03-23T04:07:05.937Z,102440.80
2019-03-23T04:09:35.683Z,102443.48
2019-03-23T04:12:05.433Z,102446.61
2019-03-23T04:14:35.255Z,102444.94
2019-03-23T04:17:04.953Z,102445.12
2019-03-23T04:19:34.708Z,102451.38
2019-03-23T04:22:04.431Z,102454.09
2019-03-23T04:24:34.174Z,102448.62
2019-03-23T04:27:05.125Z,102457.88
2019-03-23T04:29:35.111Z,102454.39
2019-03-23T04:32:05.739Z,102457.44
2019-03-23T04:34:35.485Z,102459.89
2019-03-23T04:37:05.199Z,102458.03
2019-03-23T04:39:34.949Z,102458.78
2019-03-23T04:42:04.677Z,102469.08
2019-03-23T04:44:34.396Z,102472.05
2019-03-23T04:47:04.077Z,102471.13
2019-03-23T04:49:33.896Z,102473.14
2019-03-23T04:52:03.589Z,102487.83
2019-03-23T04:54:33.305Z,102490.84
2019-03-23T04:57:03.748Z,102488.64
2019-03-23T04:59:33.625Z,102498.09
2019-03-23T05:02:03.377Z,102500.17
2019-03-23T05:04:33.114Z,102499.31
2019-03-23T05:07:02.889Z,102499.69
2019-03-23T05:09:32.582Z,102501.55
2019-03-23T05:12:02.583Z,102501.33
2019-03-23T05:14:32.307Z,102500.95
2019-03-23T05:17:02.009Z,102509.66
2019-03-23T05:19:31.743Z,102516.73
2019-03-23T05:22:04.059Z,102516.69
2019-03-23T05:24:33.789Z,102516.73
2019-03-23T05:27:03.504Z,102525.91
2019-03-23T05:29:33.229Z,102525.36
2019-03-23T05:32:03.021Z,102532.31
2019-03-23T05:34:32.746Z,102531.57
2019-03-23T05:37:02.429Z,102533.84
2019-03-23T05:39:32.131Z,102522.61
2019-03-23T05:42:02.266Z,102526.44
2019-03-23T05:44:32.177Z,102536.34
2019-03-23T05:47:01.883Z,102541.06
2019-03-23T05:49:31.644Z,102532.84
2019-03-23T05:52:03.776Z,102539.88
2019-03-23T05:54:33.479Z,102537.41
2019-03-23T05:57:03.203Z,102533.55
2019-03-23T05:59:32.907Z,102527.92
2019-03-23T06:02:02.692Z,102524.87
2019-03-23T06:04:32.461Z,102533.95
2019-03-23T06:07:02.154Z,102530.83
2019-03-23T06:09:31.893Z,102537.30
2019-03-23T06:12:02.247Z,102531.16
2019-03-23T06:14:31.942Z,102535.81
2019-03-23T06:17:02.302Z,102537.48
2019-03-23T06:19:31.988Z,102538.60
2019-03-23T06:22:02.531Z,102542.80
2019-03-23T06:24:32.256Z,102546.22
2019-03-23T06:27:01.966Z,102543.13
2019-03-23T06:29:31.873Z,102542.12
2019-03-23T06:32:01.649Z,102541.67
2019-03-23T06:34:31.299Z,102540.67
2019-03-23T06:37:02.744Z,102546.20
2019-03-23T06:39:32.433Z,102552.89
2019-03-23T06:42:02.171Z,102556.27
2019-03-23T06:44:31.896Z,102544.83
2019-03-23T06:47:01.620Z,102543.27
2019-03-23T06:49:31.386Z,102542.73
2019-03-23T06:52:01.081Z,102546.81
2019-03-23T06:54:30.874Z,102548.92
2019-03-23T06:57:00.797Z,102547.86
2019-03-23T06:59:30.526Z,102546.30
2019-03-23T07:02:00.235Z,102547.84
2019-03-23T07:04:30.237Z,102550.72
2019-03-23T07:07:00.004Z,102542.00
2019-03-23T07:09:29.692Z,102537.96
2019-03-23T07:11:59.415Z,102541.34
2019-03-23T07:14:29.397Z,102540.80
2019-03-23T07:16:59.083Z,102544.08
2019-03-23T07:19:28.903Z,102550.20
2019-03-23T07:21:58.691Z,102557.44
2019-03-23T07:24:28.391Z,102555.45
2019-03-23T07:26:58.169Z,102563.52
2019-03-23T07:29:27.883Z,102555.42
2019-03-23T07:32:05.600Z,102563.89
2019-03-23T07:34:29.509Z,102556.27
2019-03-23T07:37:00.660Z,102554.47
2019-03-23T07:39:30.698Z,102564.16
2019-03-23T07:42:00.456Z,102566.09
2019-03-23T07:44:30.245Z,102568.92
2019-03-23T07:46:59.968Z,102568.38
2019-03-23T07:49:29.651Z,102570.75
2019-03-23T07:51:59.396Z,102565.98
2019-03-23T07:54:29.110Z,102569.09
2019-03-23T07:56:58.911Z,102570.61
2019-03-23T07:59:28.707Z,102573.52
2019-03-23T08:01:58.401Z,102572.20
2019-03-23T08:04:28.544Z,102567.58
2019-03-23T08:06:58.324Z,102563.77
2019-03-23T08:09:37.350Z,102563.12
2019-03-23T08:11:59.528Z,102563.73
2019-03-23T08:14:29.249Z,102573.33
2019-03-23T08:16:59.031Z,102578.98
2019-03-23T08:19:28.861Z,102583.83
2019-03-23T08:21:58.711Z,102584.89
2019-03-23T08:24:28.420Z,102596.84
2019-03-23T08:26:58.125Z,102598.57
2019-03-23T08:29:27.875Z,102598.70
2019-03-23T08:31:57.654Z,102601.52
2019-03-23T08:34:27.950Z,102602.27
2019-03-23T08:36:57.658Z,102605.91
2019-03-23T08:39:27.402Z,102604.44
2019-03-23T08:41:57.106Z,102600.66
2019-03-23T08:44:26.810Z,102600.55
2019-03-23T08:46:56.546Z,102604.73
2019-03-23T08:49:28.563Z,102607.86
2019-03-23T08:51:57.866Z,102609.92
2019-03-23T08:54:27.594Z,102614.81
2019-03-23T08:56:57.327Z,102615.11
2019-03-23T08:59:27.048Z,102618.88
2019-03-23T09:01:56.765Z,102612.85
2019-03-23T09:04:26.571Z,102614.56
2019-03-23T09:06:56.566Z,102616.12
2019-03-23T09:09:26.267Z,102623.35
2019-03-23T09:11:55.973Z,102619.17
2019-03-23T09:14:25.709Z,102619.31
2019-03-23T09:16:55.468Z,102617.66
2019-03-23T09:19:25.460Z,102617.27
2019-03-23T09:21:55.273Z,102624.45
2019-03-23T09:24:24.987Z,102620.12
2019-03-23T09:26:55.027Z,102623.50
2019-03-23T09:29:24.848Z,102615.69
2019-03-23T09:31:54.584Z,102623.22
2019-03-23T09:34:25.167Z,102628.92
2019-03-23T09:36:55.003Z,102626.09
2019-03-23T09:39:24.964Z,102621.33
2019-03-23T09:41:54.685Z,102625.64
2019-03-23T09:44:24.400Z,102628.98
2019-03-23T09:46:54.204Z,102629.12
2019-03-23T09:49:23.960Z,102626.66
2019-03-23T09:51:53.724Z,102626.97
2019-03-23T09:54:23.493Z,102637.92
2019-03-23T09:56:53.290Z,102638.09
2019-03-23T09:59:23.039Z,102641.41
2019-03-23T10:01:52.752Z,102640.47
2019-03-23T10:04:22.464Z,102644.92
2019-03-23T10:06:52.177Z,102649.64
2019-03-23T10:09:22.001Z,102643.78
2019-03-23T10:11:51.731Z,102647.91
2019-03-23T10:14:21.465Z,102659.66
2019-03-23T10:16:51.207Z,102656.52
2019-03-23T10:19:23.186Z,102652.15
2019-03-23T10:21:52.357Z,102651.59
2019-03-23T10:24:22.150Z,102652.34
2019-03-23T10:26:52.322Z,102668.36
2019-03-23T10:29:22.195Z,102664.34
2019-03-23T10:31:51.935Z,102662.50
2019-03-23T10:34:21.709Z,102657.44
2019-03-23T10:36:51.576Z,102650.55
2019-03-23T10:39:21.370Z,102650.63
2019-03-23T10:41:51.417Z,102660.84
2019-03-23T10:44:21.213Z,102660.52
2019-03-23T10:46:51.011Z,102652.57
2019-03-23T10:49:20.778Z,102652.92
2019-03-23T10:51:50.524Z,102653.08
2019-03-23T10:54:20.473Z,102649.27
2019-03-23T10:56:50.259Z,102654.52
2019-03-23T10:59:20.229Z,102653.27
2019-03-23T11:01:51.339Z,102643.97
2019-03-23T11:04:21.059Z,102653.70
2019-03-23T11:06:51.086Z,102657.02
2019-03-23T11:09:20.774Z,102657.66
2019-03-23T11:11:50.750Z,102659.23
2019-03-23T11:14:20.600Z,102662.64
2019-03-23T11:16:50.392Z,102656.94
2019-03-23T11:19:20.264Z,102659.01
2019-03-23T11:21:50.998Z,102661.41
2019-03-23T11:24:20.700Z,102663.80
2019-03-23T11:26:50.398Z,102665.92
2019-03-23T11:29:20.304Z,102659.02
2019-03-23T11:31:50.077Z,102650.59
2019-03-23T11:34:19.824Z,102651.00
2019-03-23T11:36:49.589Z,102657.24
2019-03-23T11:39:19.280Z,102661.65
2019-03-23T11:41:49.018Z,102671.59
2019-03-23T11:44:18.742Z,102676.98
2019-03-23T11:46:48.482Z,102675.08
2019-03-23T11:49:18.199Z,102677.91
2019-03-23T11:51:48.549Z,102679.93
2019-03-23T11:54:18.263Z,102682.17
2019-03-23T11:56:48.011Z,102681.78
2019-03-23T11:59:17.742Z,102684.77
2019-03-23T12:01:51.760Z,102684.72
2019-03-23T12:04:18.950Z,102689.50
2019-03-23T12:06:48.711Z,102695.75
2019-03-23T12:09:18.404Z,102693.83
2019-03-23T12:11:48.130Z,102683.25
2019-03-23T12:14:17.878Z,102683.33
2019-03-23T12:16:47.615Z,102686.03
2019-03-23T12:19:17.312Z,102679.73
2019-03-23T12:21:47.024Z,102683.73
2019-03-23T12:24:16.860Z,102682.73
2019-03-23T12:26:46.592Z,102690.34
2019-03-23T12:29:16.291Z,102685.44
2019-03-23T12:31:46.036Z,102689.65
2019-03-23T12:34:16.019Z,102693.81
2019-03-23T12:36:45.830Z,102690.53
2019-03-23T12:39:15.521Z,102695.00
2019-03-23T12:41:45.230Z,102703.34
2019-03-23T12:44:15.012Z,102708.20
2019-03-23T12:46:48.439Z,102695.53
2019-03-23T12:49:16.173Z,102696.50
2019-03-23T12:51:45.905Z,102695.98
2019-03-23T12:54:15.706Z,102701.06
2019-03-23T12:56:45.538Z,102705.72
2019-03-23T12:59:15.297Z,102707.41
2019-03-23T13:01:45.040Z,102705.38
2019-03-23T13:04:14.744Z,102712.65
2019-03-23T13:06:44.481Z,102705.30
2019-03-23T13:09:14.215Z,102707.30
2019-03-23T13:11:43.918Z,102699.38
2019-03-23T13:14:13.619Z,102702.06
2019-03-23T13:16:43.548Z,102702.45
2019-03-23T13:19:13.262Z,102700.93
2019-03-23T13:21:42.952Z,102705.66
2019-03-23T13:24:12.691Z,102705.98
2019-03-23T13:26:43.111Z,102704.56
2019-03-23T13:29:12.830Z,102709.11
2019-03-23T13:31:42.625Z,102716.02
2019-03-23T13:34:12.329Z,102709.92
2019-03-23T13:36:42.080Z,102710.83
2019-03-23T13:39:11.764Z,102716.97
2019-03-23T13:41:51.218Z,102716.12
2019-03-23T13:44:21.257Z,102712.71
2019-03-23T13:46:50.930Z,102718.47
2019-03-23T13:49:20.672Z,102717.06
2019-03-23T13:51:50.394Z,102720.44
2019-03-23T13:54:20.078Z,102719.92
2019-03-23T13:56:49.841Z,102723.66
2019-03-23T13:59:19.532Z,102727.19
2019-03-23T14:01:49.365Z,102725.17
2019-03-23T14:04:19.136Z,102724.69
2019-03-23T14:06:48.955Z,102724.33
2019-03-23T14:09:18.705Z,102726.23
2019-03-23T14:11:54.920Z,102725.17
2019-03-23T14:14:20.013Z,102723.77
2019-03-23T14:16:49.857Z,102720.98
2019-03-23T14:19:19.584Z,102717.89
2019-03-23T14:21:49.334Z,102716.42
2019-03-23T14:24:19.140Z,102715.44
2019-03-23T14:26:48.991Z,102717.87
2019-03-23T14:29:18.709Z,102717.66
2019-03-23T14:31:48.473Z,102717.30
2019-03-23T14:34:18.221Z,102721.30
2019-03-23T14:36:47.938Z,102721.89
2019-03-23T14:39:17.746Z,102720.03
2019-03-23T14:41:47.461Z,102713.75
2019-03-23T14:44:17.192Z,102726.93
2019-03-23T14:46:46.903Z,102723.56
2019-03-23T14:49:16.629Z,102725.05
2019-03-23T14:51:46.386Z,102725.55
2019-03-23T14:54:16.081Z,102731.13
2019-03-23T14:56:45.867Z,102742.28
2019-03-23T14:59:15.629Z,102741.97
2019-03-23T15:01:45.433Z,102739.77
2019-03-23T15:04:15.222Z,102741.28
2019-03-23T15:06:44.987Z,102743.09
2019-03-23T15:09:15.069Z,102739.47
2019-03-23T15:11:44.763Z,102743.45
2019-03-23T15:14:14.578Z,102751.63
2019-03-23T15:16:44.306Z,102753.74
2019-03-23T15:19:15.607Z,102752.89
2019-03-23T15:21:45.616Z,102759.08
2019-03-23T15:24:15.340Z,102756.94
2019-03-23T15:26:45.069Z,102764.84
2019-03-23T15:29:14.839Z,102757.09
2019-03-23T15:31:44.634Z,102765.52
2019-03-23T15:34:14.530Z,102761.52
2019-03-23T15:36:44.256Z,102763.26
2019-03-23T15:39:14.105Z,102767.45
2019-03-23T15:41:43.786Z,102770.12
2019-03-23T15:44:13.537Z,102764.72
2019-03-23T15:46:43.287Z,102765.89
2019-03-23T15:49:13.033Z,102767.34
2019-03-23T15:51:42.726Z,102768.86
2019-03-23T15:54:12.453Z,102763.66
2019-03-23T15:56:42.157Z,102764.03
2019-03-23T15:59:11.887Z,102769.39
2019-03-23T16:01:42.059Z,102769.97
2019-03-23T16:04:11.806Z,102761.10
2019-03-23T16:06:41.626Z,102753.70
2019-03-23T16:09:11.332Z,102754.69
2019-03-23T16:11:41.080Z,102761.30
2019-03-23T16:14:10.827Z,102757.56
2019-03-23T16:16:40.645Z,102753.78
2019-03-23T16:19:10.346Z,102753.73
2019-03-23T16:21:40.087Z,102756.77
2019-03-23T16:24:09.825Z,102762.92
2019-03-23T16:26:39.622Z,102762.53
2019-03-23T16:29:09.774Z,102758.25
2019-03-23T16:31:39.558Z,102757.11
2019-03-23T16:34:09.271Z,102760.77
2019-03-23T16:36:39.023Z,102756.27
2019-03-23T16:39:08.794Z,102759.36
2019-03-23T16:41:38.489Z,102759.25
2019-03-23T16:44:08.646Z,102760.60
2019-03-23T16:46:38.362Z,102760.77
2019-03-23T16:49:08.103Z,102752.19
2019-03-23T16:51:37.912Z,102753.66
2019-03-23T16:54:07.677Z,102759.31
2019-03-23T16:56:40.474Z,102758.56
2019-03-23T16:59:10.176Z,102761.47
2019-03-23T17:01:39.920Z,102760.02
2019-03-23T17:04:09.664Z,102758.13
2019-03-23T17:06:46.214Z,102753.63
2019-03-23T17:09:11.107Z,102758.05
2019-03-23T17:11:40.899Z,102765.30
2019-03-23T17:14:10.612Z,102762.81
2019-03-23T17:16:40.362Z,102762.36
2019-03-23T17:19:10.188Z,102762.80
2019-03-23T17:21:40.069Z,102767.53
2019-03-23T17:24:09.906Z,102766.70
2019-03-23T17:26:39.998Z,102771.05
2019-03-23T17:29:09.708Z,102768.63
2019-03-23T17:31:39.437Z,102765.42
2019-03-23T17:34:09.298Z,102763.06
2019-03-23T17:36:39.029Z,102766.20
2019-03-23T17:39:11.743Z,102768.36
2019-03-23T17:41:41.586Z,102763.98
2019-03-23T17:44:11.377Z,102769.70
2019-03-23T17:46:41.066Z,102774.32
2019-03-23T17:49:10.794Z,102783.23
2019-03-23T17:51:40.516Z,102784.45
2019-03-23T17:54:10.207Z,102785.77
2019-03-23T17:56:40.040Z,102792.70
2019-03-23T17:59:09.780Z,102788.29
2019-03-23T18:01:39.504Z,102791.62
2019-03-23T18:04:09.195Z,102788.27
2019-03-23T18:06:38.955Z,102792.75
2019-03-23T18:09:09.070Z,102796.03
2019-03-23T18:11:38.763Z,102806.20
2019-03-23T18:14:08.497Z,102798.98
2019-03-23T18:16:38.223Z,102800.95
2019-03-23T18:19:08.001Z,102808.47
2019-03-23T18:21:37.805Z,102819.31
2019-03-23T18:24:08.006Z,102811.63
2019-03-23T18:26:37.781Z,102819.15
2019-03-23T18:29:07.877Z,102819.15
2019-03-23T18:31:37.572Z,102837.13
2019-03-23T18:34:07.355Z,102836.41
2019-03-23T18:36:37.078Z,102824.44
2019-03-23T18:39:07.817Z,102835.38
2019-03-23T18:41:37.668Z,102847.33
2019-03-23T18:44:15.802Z,102841.73
2019-03-23T18:46:39.135Z,102838.38
2019-03-23T18:49:08.952Z,102847.81
2019-03-23T18:51:38.832Z,102847.39
2019-03-23T18:54:08.698Z,102847.91
2019-03-23T18:56:38.424Z,102849.30
2019-03-23T18:59:08.260Z,102850.72
2019-03-23T19:01:38.115Z,102849.86
2019-03-23T19:04:07.926Z,102849.27
2019-03-23T19:06:37.715Z,102854.15
2019-03-23T19:09:08.218Z,102855.51
2019-03-23T19:11:37.975Z,102847.98
2019-03-23T19:14:07.757Z,102852.94
2019-03-23T19:16:37.483Z,102862.58
2019-03-23T19:19:07.224Z,102862.59
2019-03-23T19:21:36.930Z,102867.05
2019-03-23T19:24:06.804Z,102875.41
2019-03-23T19:26:36.884Z,102876.19
2019-03-23T19:29:06.673Z,102876.16
2019-03-23T19:31:36.379Z,102875.05
2019-03-23T19:34:06.216Z,102872.39
2019-03-23T19:36:36.076Z,102873.38
2019-03-23T19:39:08.532Z,102871.28
2019-03-23T19:41:38.266Z,102870.06
2019-03-23T19:44:08.019Z,102870.22
2019-03-23T19:46:37.781Z,102879.90
2019-03-23T19:49:07.525Z,102877.37
2019-03-23T19:51:37.261Z,102880.55
2019-03-23T19:54:06.997Z,102877.05
2019-03-23T19:56:36.785Z,102877.60
2019-03-23T19:59:06.525Z,102884.70
2019-03-23T20:01:36.301Z,102883.05
2019-03-23T20:04:06.206Z,102887.52
2019-03-23T20:06:35.924Z,102886.78
2019-03-23T20:09:07.769Z,102884.83
2019-03-23T20:11:37.501Z,102887.55
2019-03-23T20:14:07.284Z,102878.44
2019-03-23T20:16:37.363Z,102887.20
2019-03-23T20:19:08.148Z,102894.64
2019-03-23T20:21:37.975Z,102894.57
2019-03-23T20:24:07.838Z,102887.66
2019-03-23T20:26:37.619Z,102889.42
2019-03-23T20:29:09.221Z,102885.55
2019-03-23T20:31:39.029Z,102879.91
2019-03-23T20:34:08.911Z,102883.10
2019-03-23T20:36:38.671Z,102883.17
2019-03-23T20:39:08.594Z,102879.30
2019-03-23T20:41:38.337Z,102885.84
2019-03-23T20:44:09.691Z,102882.38
2019-03-23T20:46:43.538Z,102878.95
2019-03-23T20:49:13.457Z,102878.09
2019-03-23T20:51:44.747Z,102882.52
2019-03-23T20:54:14.565Z,102872.98
2019-03-23T20:56:44.712Z,102870.83
2019-03-23T20:59:15.724Z,102874.34
2019-03-23T21:01:45.567Z,102873.17
2019-03-23T21:04:15.258Z,102872.75
2019-03-23T21:06:45.153Z,102872.81
2019-03-23T21:09:15.123Z,102871.23
2019-03-23T21:11:44.862Z,102868.28
2019-03-23T21:14:20.306Z,102866.97
2019-03-23T21:16:46.105Z,102871.89
2019-03-23T21:19:15.813Z,102873.20
2019-03-23T21:21:45.563Z,102878.86
2019-03-23T21:24:15.336Z,102870.31
2019-03-23T21:26:45.332Z,102864.71
2019-03-23T21:29:15.988Z,102866.47
2019-03-23T21:31:45.752Z,102866.17
2019-03-23T21:34:15.623Z,102866.16
2019-03-23T21:36:45.339Z,102862.72
2019-03-23T21:39:15.027Z,102865.84
2019-03-23T21:41:44.823Z,102856.78
2019-03-23T21:44:14.533Z,102864.03
2019-03-23T21:46:44.253Z,102865.88
2019-03-23T21:49:14.249Z,102870.64
2019-03-23T21:51:43.946Z,102858.95
2019-03-23T21:54:13.702Z,102862.75
2019-03-23T21:59:13.998Z,102858.01
2019-03-23T22:01:43.826Z,102862.39
2019-03-23T22:04:13.521Z,102859.84
2019-03-23T22:06:43.254Z,102852.08
2019-03-23T22:09:12.997Z,102852.53
2019-03-23T22:11:43.058Z,102856.93
2019-03-23T22:14:12.744Z,102859.97
2019-03-23T22:16:42.447Z,102858.70
2019-03-23T22:19:12.493Z,102852.70
2019-03-23T22:21:42.198Z,102853.95
2019-03-23T22:24:11.915Z,102849.25
2019-03-23T22:26:41.650Z,102846.38
2019-03-23T22:29:11.536Z,102846.34
2019-03-23T22:31:41.238Z,102841.21
2019-03-23T22:34:10.940Z,102846.45
2019-03-23T22:36:40.674Z,102840.88
2019-03-23T22:39:10.382Z,102841.30
2019-03-23T22:41:40.083Z,102835.33
2019-03-23T22:44:09.879Z,102835.33
2019-03-23T22:46:39.572Z,102827.56
2019-03-23T22:49:09.349Z,102834.83
2019-03-23T22:51:39.059Z,102834.36
2019-03-23T22:54:08.814Z,102837.81
2019-03-23T22:56:38.528Z,102836.17
2019-03-23T22:59:08.322Z,102839.63
2019-03-23T23:01:38.050Z,102836.61
2019-03-23T23:04:07.871Z,102832.31
2019-03-23T23:06:37.567Z,102834.40
2019-03-23T23:09:10.125Z,102831.43
2019-03-23T23:11:39.900Z,102834.47
2019-03-23T23:14:09.579Z,102826.77
2019-03-23T23:16:39.312Z,102821.64
2019-03-23T23:19:09.271Z,102827.67
2019-03-23T23:21:39.011Z,102823.30
2019-03-23T23:24:08.749Z,102816.89
2019-03-23T23:26:38.474Z,102808.28
2019-03-23T23:29:08.221Z,102815.17
2019-03-23T23:31:37.938Z,102813.88
2019-03-23T23:34:07.664Z,102814.70
2019-03-23T23:36:37.387Z,102816.47
2019-03-23T23:39:08.417Z,102822.07
2019-03-23T23:41:38.138Z,102818.66
2019-03-23T23:44:07.807Z,102820.81
2019-03-23T23:46:37.542Z,102813.91
2019-03-23T23:49:07.274Z,102812.59
2019-03-23T23:51:36.965Z,102810.04
2019-03-23T23:54:06.635Z,102809.61
2019-03-23T23:56:36.393Z,102803.58
2019-03-23T23:59:06.100Z,102806.56
